Pagrindinis puslapis
METAR-TAF:

METAR-TAF

Oro uostai :

Odesa, Ukraina

platuma: 46-26N, ilguma: 030-46E, Aukštis: 42 m

Dabartinis oras

Ataskaita buvo paskelbta 28 minutes, ne 18:00 UTC
Vėjas 4 kt iš Pietvakarių
Temperatūra 16°C
Drėgmė 48%
Slėgis 1022 hPa
Matomumas 10 km arba daugiau
nėra debesų žemiau 1500 m ir nėra kamuolinių lietaus debesų

METAR: UKOO 151800Z 22002MPS CAVOK 16/05 Q1022 R16/090060 NOSIG

Laikas: 21:28 (18:28 UTC)

Prognozė

Ataskaita buvo paskelbta 1 valandą ir 25 minutes, ne 17:03 UTC
Prognozė galioja nuo 15 metu 18 UTC su 16 metu 18 UTC
Vėjas 6 kt iš Pietų/Pietvakarių su gūsio iki 16 kt
Matomumas: 6000 m
Su prošvaistėmis ne aukštis 1000 ft
Laikinai
nuo 15 metu 21 UTC su 16 metu 06 UTC
Matomumas: 2100 m
Išsisklaidę debesys ne aukštis 400 ft
rūkana

TAF: UKOO 151703Z 1518/1618 21003G08MPS 6000 BKN010 TX25/1612Z TN12/1603Z TEMPO 1521/1606 2100 BR SCT004

Orai ataskaitas ir orų prognozės (METAR, TAF).

turimą stotys yra geltonos ir raudonos taškus žemėlapyje.

Perkelti pele per norėdami pamatyti stoties vardą.

Tada spustelėkite, norėdami matyti oro stebėjimo ir prognozės.

Norėdami pakeisti žemėlapį: spustelėkite ant žalios mygtukų su juodo kryžiaus žemyn,; žalią mygtuką su brūkšneliu, jei norite nutolinti; arba žalių rodyklių gretimoms žemėlapius.


METAR-TAF: